sensor_id;sensor_type;location;lat;lon;timestamp;P1;durP1;ratioP1;P2;durP2;ratioP2
44516;SDS011;30223;17.182;-96.766;2023-05-29T00:01:50;3.78;;;2.53;;
44516;SDS011;30223;17.182;-96.766;2023-05-29T00:04:17;3.22;;;2.25;;
44516;SDS011;30223;17.182;-96.766;2023-05-29T00:06:47;4.70;;;2.72;;
44516;SDS011;30223;17.182;-96.766;2023-05-29T00:09:13;4.60;;;3.47;;
44516;SDS011;30223;17.182;-96.766;2023-05-29T00:11:40;1.95;;;1.83;;
44516;SDS011;30223;17.182;-96.766;2023-05-29T00:14:07;3.13;;;2.65;;
44516;SDS011;30223;17.182;-96.766;2023-05-29T00:16:38;3.30;;;2.47;;
44516;SDS011;30223;17.182;-96.766;2023-05-29T00:19:05;3.28;;;2.10;;
44516;SDS011;30223;17.182;-96.766;2023-05-29T00:21:31;5.95;;;2.50;;
44516;SDS011;30223;17.182;-96.766;2023-05-29T00:23:58;3.25;;;2.42;;
44516;SDS011;30223;17.182;-96.766;2023-05-29T00:26:25;4.95;;;2.35;;
44516;SDS011;30223;17.182;-96.766;2023-05-29T00:28:52;5.95;;;2.58;;
44516;SDS011;30223;17.182;-96.766;2023-05-29T00:31:18;5.70;;;2.58;;
44516;SDS011;30223;17.182;-96.766;2023-05-29T00:33:45;3.83;;;2.60;;
44516;SDS011;30223;17.182;-96.766;2023-05-29T00:36:12;4.85;;;3.03;;
44516;SDS011;30223;17.182;-96.766;2023-05-29T00:38:39;4.70;;;2.30;;
44516;SDS011;30223;17.182;-96.766;2023-05-29T00:41:05;2.92;;;2.33;;
44516;SDS011;30223;17.182;-96.766;2023-05-29T00:43:32;3.60;;;2.70;;
44516;SDS011;30223;17.182;-96.766;2023-05-29T00:45:59;4.22;;;2.70;;
44516;SDS011;30223;17.182;-96.766;2023-05-29T00:48:26;6.50;;;2.60;;
44516;SDS011;30223;17.182;-96.766;2023-05-29T00:50:53;2.38;;;2.17;;
44516;SDS011;30223;17.182;-96.766;2023-05-29T00:53:20;4.68;;;2.40;;
44516;SDS011;30223;17.182;-96.766;2023-05-29T00:55:48;9.05;;;2.15;;
44516;SDS011;30223;17.182;-96.766;2023-05-29T00:58:15;4.43;;;2.63;;
44516;SDS011;30223;17.182;-96.766;2023-05-29T01:00:42;4.15;;;2.50;;
44516;SDS011;30223;17.182;-96.766;2023-05-29T01:03:09;3.30;;;2.47;;
44516;SDS011;30223;17.182;-96.766;2023-05-29T01:05:40;9.20;;;2.80;;
44516;SDS011;30223;17.182;-96.766;2023-05-29T01:08:07;4.75;;;2.30;;
44516;SDS011;30223;17.182;-96.766;2023-05-29T01:10:34;5.75;;;2.85;;
44516;SDS011;30223;17.182;-96.766;2023-05-29T01:15:46;3.42;;;2.63;;
44516;SDS011;30223;17.182;-96.766;2023-05-29T01:21:23;2.78;;;2.40;;
44516;SDS011;30223;17.182;-96.766;2023-05-29T01:23:53;5.20;;;2.50;;
44516;SDS011;30223;17.182;-96.766;2023-05-29T01:29:12;5.28;;;2.88;;
44516;SDS011;30223;17.182;-96.766;2023-05-29T01:31:41;3.88;;;3.10;;
44516;SDS011;30223;17.182;-96.766;2023-05-29T01:34:09;9.68;;;4.57;;
44516;SDS011;30223;17.182;-96.766;2023-05-29T01:36:36;6.80;;;5.05;;
44516;SDS011;30223;17.182;-96.766;2023-05-29T01:39:03;6.43;;;5.53;;
44516;SDS011;30223;17.182;-96.766;2023-05-29T01:41:30;6.22;;;4.78;;
44516;SDS011;30223;17.182;-96.766;2023-05-29T01:43:58;7.00;;;4.65;;
44516;SDS011;30223;17.182;-96.766;2023-05-29T01:46:28;6.95;;;5.53;;
44516;SDS011;30223;17.182;-96.766;2023-05-29T01:48:55;8.43;;;5.50;;
44516;SDS011;30223;17.182;-96.766;2023-05-29T01:51:22;9.95;;;5.80;;
44516;SDS011;30223;17.182;-96.766;2023-05-29T01:53:49;9.13;;;5.90;;
44516;SDS011;30223;17.182;-96.766;2023-05-29T01:56:16;6.50;;;5.45;;
44516;SDS011;30223;17.182;-96.766;2023-05-29T01:58:43;9.95;;;6.10;;
44516;SDS011;30223;17.182;-96.766;2023-05-29T02:01:11;9.35;;;5.32;;
44516;SDS011;30223;17.182;-96.766;2023-05-29T02:03:38;5.57;;;4.60;;
44516;SDS011;30223;17.182;-96.766;2023-05-29T02:06:05;8.23;;;6.47;;
44516;SDS011;30223;17.182;-96.766;2023-05-29T02:08:32;10.93;;;5.50;;
44516;SDS011;30223;17.182;-96.766;2023-05-29T02:10:59;8.43;;;5.55;;
44516;SDS011;30223;17.182;-96.766;2023-05-29T02:13:25;8.45;;;5.03;;
44516;SDS011;30223;17.182;-96.766;2023-05-29T02:15:52;6.40;;;5.20;;
44516;SDS011;30223;17.182;-96.766;2023-05-29T02:18:19;7.75;;;5.45;;
44516;SDS011;30223;17.182;-96.766;2023-05-29T02:20:46;9.05;;;5.88;;
44516;SDS011;30223;17.182;-96.766;2023-05-29T02:23:14;7.00;;;5.53;;
44516;SDS011;30223;17.182;-96.766;2023-05-29T02:25:41;7.47;;;6.30;;
44516;SDS011;30223;17.182;-96.766;2023-05-29T02:28:08;7.13;;;5.95;;
44516;SDS011;30223;17.182;-96.766;2023-05-29T02:30:35;7.30;;;5.80;;
44516;SDS011;30223;17.182;-96.766;2023-05-29T02:33:02;9.65;;;6.22;;
44516;SDS011;30223;17.182;-96.766;2023-05-29T02:35:29;10.98;;;6.30;;
44516;SDS011;30223;17.182;-96.766;2023-05-29T02:37:55;10.60;;;6.85;;
44516;SDS011;30223;17.182;-96.766;2023-05-29T02:40:22;7.00;;;5.40;;
44516;SDS011;30223;17.182;-96.766;2023-05-29T02:42:49;7.78;;;6.25;;
44516;SDS011;30223;17.182;-96.766;2023-05-29T02:45:16;6.93;;;5.75;;
44516;SDS011;30223;17.182;-96.766;2023-05-29T02:47:43;7.07;;;5.90;;
44516;SDS011;30223;17.182;-96.766;2023-05-29T02:50:10;6.82;;;5.30;;
44516;SDS011;30223;17.182;-96.766;2023-05-29T02:52:39;6.65;;;5.90;;
44516;SDS011;30223;17.182;-96.766;2023-05-29T02:55:07;6.43;;;5.10;;
44516;SDS011;30223;17.182;-96.766;2023-05-29T02:57:34;7.75;;;5.75;;
44516;SDS011;30223;17.182;-96.766;2023-05-29T03:00:01;6.93;;;5.38;;
44516;SDS011;30223;17.182;-96.766;2023-05-29T03:02:31;9.52;;;6.78;;
44516;SDS011;30223;17.182;-96.766;2023-05-29T03:04:59;8.27;;;6.20;;
44516;SDS011;30223;17.182;-96.766;2023-05-29T03:07:25;7.00;;;5.82;;
44516;SDS011;30223;17.182;-96.766;2023-05-29T03:09:53;8.93;;;5.90;;
44516;SDS011;30223;17.182;-96.766;2023-05-29T03:12:20;8.13;;;5.72;;
44516;SDS011;30223;17.182;-96.766;2023-05-29T03:14:47;8.88;;;5.75;;
44516;SDS011;30223;17.182;-96.766;2023-05-29T03:17:14;9.32;;;6.15;;
44516;SDS011;30223;17.182;-96.766;2023-05-29T03:19:40;8.50;;;6.60;;
44516;SDS011;30223;17.182;-96.766;2023-05-29T03:22:07;6.68;;;5.90;;
44516;SDS011;30223;17.182;-96.766;2023-05-29T03:24:34;7.00;;;5.30;;
44516;SDS011;30223;17.182;-96.766;2023-05-29T03:27:01;7.72;;;6.00;;
44516;SDS011;30223;17.182;-96.766;2023-05-29T03:29:29;7.78;;;5.93;;
44516;SDS011;30223;17.182;-96.766;2023-05-29T03:31:59;7.13;;;5.93;;
44516;SDS011;30223;17.182;-96.766;2023-05-29T03:34:26;8.95;;;6.28;;
44516;SDS011;30223;17.182;-96.766;2023-05-29T03:36:53;8.60;;;6.90;;
44516;SDS011;30223;17.182;-96.766;2023-05-29T03:39:20;7.55;;;5.72;;
44516;SDS011;30223;17.182;-96.766;2023-05-29T03:41:46;8.50;;;6.93;;
44516;SDS011;30223;17.182;-96.766;2023-05-29T03:44:13;7.75;;;6.10;;
44516;SDS011;30223;17.182;-96.766;2023-05-29T03:46:40;8.15;;;6.30;;
44516;SDS011;30223;17.182;-96.766;2023-05-29T03:49:07;7.60;;;5.93;;
44516;SDS011;30223;17.182;-96.766;2023-05-29T03:51:33;8.07;;;5.95;;
44516;SDS011;30223;17.182;-96.766;2023-05-29T03:54:01;9.95;;;6.05;;
44516;SDS011;30223;17.182;-96.766;2023-05-29T03:56:28;6.78;;;5.78;;
44516;SDS011;30223;17.182;-96.766;2023-05-29T03:58:55;9.50;;;6.40;;
44516;SDS011;30223;17.182;-96.766;2023-05-29T04:01:22;8.32;;;5.90;;
44516;SDS011;30223;17.182;-96.766;2023-05-29T04:03:49;7.43;;;6.03;;
44516;SDS011;30223;17.182;-96.766;2023-05-29T04:06:16;9.23;;;7.00;;
44516;SDS011;30223;17.182;-96.766;2023-05-29T04:08:43;7.18;;;6.03;;
44516;SDS011;30223;17.182;-96.766;2023-05-29T04:11:10;8.23;;;6.25;;
44516;SDS011;30223;17.182;-96.766;2023-05-29T04:13:37;7.22;;;5.63;;
44516;SDS011;30223;17.182;-96.766;2023-05-29T04:16:04;6.97;;;5.97;;
44516;SDS011;30223;17.182;-96.766;2023-05-29T04:18:31;10.65;;;6.43;;
44516;SDS011;30223;17.182;-96.766;2023-05-29T04:20:58;8.52;;;6.30;;
44516;SDS011;30223;17.182;-96.766;2023-05-29T04:23:25;9.93;;;5.57;;
44516;SDS011;30223;17.182;-96.766;2023-05-29T04:25:51;7.85;;;6.25;;
44516;SDS011;30223;17.182;-96.766;2023-05-29T04:28:19;6.90;;;5.53;;
44516;SDS011;30223;17.182;-96.766;2023-05-29T04:30:49;8.73;;;6.10;;
44516;SDS011;30223;17.182;-96.766;2023-05-29T04:33:17;8.55;;;6.03;;
44516;SDS011;30223;17.182;-96.766;2023-05-29T04:35:46;8.48;;;6.65;;
44516;SDS011;30223;17.182;-96.766;2023-05-29T04:38:14;11.27;;;5.82;;
44516;SDS011;30223;17.182;-96.766;2023-05-29T04:40:42;6.75;;;5.47;;
44516;SDS011;30223;17.182;-96.766;2023-05-29T04:43:09;7.30;;;5.82;;
44516;SDS011;30223;17.182;-96.766;2023-05-29T04:45:36;8.23;;;6.18;;
44516;SDS011;30223;17.182;-96.766;2023-05-29T04:48:03;9.10;;;6.05;;
44516;SDS011;30223;17.182;-96.766;2023-05-29T04:50:30;8.43;;;6.22;;
44516;SDS011;30223;17.182;-96.766;2023-05-29T04:52:58;7.20;;;5.72;;
44516;SDS011;30223;17.182;-96.766;2023-05-29T04:55:25;8.70;;;6.55;;
44516;SDS011;30223;17.182;-96.766;2023-05-29T04:57:53;8.30;;;6.13;;
44516;SDS011;30223;17.182;-96.766;2023-05-29T05:00:19;7.40;;;6.30;;
44516;SDS011;30223;17.182;-96.766;2023-05-29T05:02:47;6.28;;;5.28;;
44516;SDS011;30223;17.182;-96.766;2023-05-29T05:05:16;7.30;;;5.68;;
44516;SDS011;30223;17.182;-96.766;2023-05-29T05:07:43;6.93;;;5.55;;
44516;SDS011;30223;17.182;-96.766;2023-05-29T05:10:09;7.60;;;6.00;;
44516;SDS011;30223;17.182;-96.766;2023-05-29T05:12:37;7.40;;;5.43;;
44516;SDS011;30223;17.182;-96.766;2023-05-29T05:15:04;8.02;;;6.22;;
44516;SDS011;30223;17.182;-96.766;2023-05-29T05:17:31;6.75;;;5.53;;
44516;SDS011;30223;17.182;-96.766;2023-05-29T05:19:58;7.72;;;5.90;;
44516;SDS011;30223;17.182;-96.766;2023-05-29T05:22:25;6.95;;;5.60;;
44516;SDS011;30223;17.182;-96.766;2023-05-29T05:24:51;8.82;;;5.82;;
44516;SDS011;30223;17.182;-96.766;2023-05-29T05:27:19;7.50;;;6.28;;
44516;SDS011;30223;17.182;-96.766;2023-05-29T05:29:46;10.50;;;6.95;;
44516;SDS011;30223;17.182;-96.766;2023-05-29T05:32:13;7.50;;;5.47;;
44516;SDS011;30223;17.182;-96.766;2023-05-29T05:34:40;8.75;;;6.25;;
44516;SDS011;30223;17.182;-96.766;2023-05-29T05:37:06;7.78;;;5.95;;
44516;SDS011;30223;17.182;-96.766;2023-05-29T05:39:34;9.13;;;6.07;;
44516;SDS011;30223;17.182;-96.766;2023-05-29T05:42:01;9.55;;;6.65;;
44516;SDS011;30223;17.182;-96.766;2023-05-29T05:44:27;8.50;;;6.50;;
44516;SDS011;30223;17.182;-96.766;2023-05-29T05:46:54;7.32;;;5.55;;
44516;SDS011;30223;17.182;-96.766;2023-05-29T05:49:21;7.40;;;6.47;;
44516;SDS011;30223;17.182;-96.766;2023-05-29T05:51:48;7.22;;;6.00;;
44516;SDS011;30223;17.182;-96.766;2023-05-29T05:54:15;6.85;;;5.60;;
44516;SDS011;30223;17.182;-96.766;2023-05-29T05:56:42;8.15;;;6.30;;
44516;SDS011;30223;17.182;-96.766;2023-05-29T05:59:09;6.55;;;5.53;;
44516;SDS011;30223;17.182;-96.766;2023-05-29T06:01:35;6.60;;;5.55;;
44516;SDS011;30223;17.182;-96.766;2023-05-29T06:04:02;6.85;;;5.45;;
44516;SDS011;30223;17.182;-96.766;2023-05-29T06:06:29;8.35;;;5.97;;
44516;SDS011;30223;17.182;-96.766;2023-05-29T06:08:57;9.20;;;6.50;;
44516;SDS011;30223;17.182;-96.766;2023-05-29T06:11:24;6.68;;;5.28;;
44516;SDS011;30223;17.182;-96.766;2023-05-29T06:13:53;6.78;;;6.07;;
44516;SDS011;30223;17.182;-96.766;2023-05-29T06:16:20;8.20;;;5.72;;
44516;SDS011;30223;17.182;-96.766;2023-05-29T06:18:47;8.95;;;5.85;;
44516;SDS011;30223;17.182;-96.766;2023-05-29T06:21:14;7.93;;;6.43;;
44516;SDS011;30223;17.182;-96.766;2023-05-29T06:23:41;8.27;;;7.07;;
44516;SDS011;30223;17.182;-96.766;2023-05-29T06:26:08;7.43;;;5.88;;
44516;SDS011;30223;17.182;-96.766;2023-05-29T06:28:37;9.90;;;6.53;;
44516;SDS011;30223;17.182;-96.766;2023-05-29T06:31:03;7.22;;;5.80;;
44516;SDS011;30223;17.182;-96.766;2023-05-29T06:33:30;7.07;;;6.05;;
44516;SDS011;30223;17.182;-96.766;2023-05-29T06:35:57;8.25;;;5.90;;
44516;SDS011;30223;17.182;-96.766;2023-05-29T06:38:24;7.75;;;6.07;;
44516;SDS011;30223;17.182;-96.766;2023-05-29T06:40:51;7.05;;;5.60;;
44516;SDS011;30223;17.182;-96.766;2023-05-29T06:43:17;10.40;;;5.95;;
44516;SDS011;30223;17.182;-96.766;2023-05-29T06:45:44;10.07;;;6.80;;
44516;SDS011;30223;17.182;-96.766;2023-05-29T06:48:11;7.15;;;5.88;;
44516;SDS011;30223;17.182;-96.766;2023-05-29T06:50:38;6.60;;;6.00;;
44516;SDS011;30223;17.182;-96.766;2023-05-29T06:53:05;8.00;;;4.78;;
44516;SDS011;30223;17.182;-96.766;2023-05-29T06:55:31;7.15;;;5.63;;
44516;SDS011;30223;17.182;-96.766;2023-05-29T06:57:58;7.05;;;5.40;;
44516;SDS011;30223;17.182;-96.766;2023-05-29T07:00:25;7.30;;;5.95;;
44516;SDS011;30223;17.182;-96.766;2023-05-29T07:02:52;7.15;;;5.80;;
44516;SDS011;30223;17.182;-96.766;2023-05-29T07:05:19;9.63;;;6.65;;
44516;SDS011;30223;17.182;-96.766;2023-05-29T07:07:46;6.22;;;5.50;;
44516;SDS011;30223;17.182;-96.766;2023-05-29T07:10:12;8.05;;;6.68;;
44516;SDS011;30223;17.182;-96.766;2023-05-29T07:12:39;8.25;;;5.65;;
44516;SDS011;30223;17.182;-96.766;2023-05-29T07:15:06;6.93;;;5.20;;
44516;SDS011;30223;17.182;-96.766;2023-05-29T07:17:33;7.40;;;5.85;;
44516;SDS011;30223;17.182;-96.766;2023-05-29T07:20:00;8.48;;;6.40;;
44516;SDS011;30223;17.182;-96.766;2023-05-29T07:22:27;8.35;;;5.80;;
44516;SDS011;30223;17.182;-96.766;2023-05-29T07:24:54;8.93;;;6.85;;
44516;SDS011;30223;17.182;-96.766;2023-05-29T07:27:20;8.18;;;6.03;;
44516;SDS011;30223;17.182;-96.766;2023-05-29T07:29:47;6.85;;;5.60;;
44516;SDS011;30223;17.182;-96.766;2023-05-29T07:32:14;8.50;;;6.28;;
44516;SDS011;30223;17.182;-96.766;2023-05-29T07:34:41;6.95;;;5.95;;
44516;SDS011;30223;17.182;-96.766;2023-05-29T07:37:08;11.18;;;6.15;;
44516;SDS011;30223;17.182;-96.766;2023-05-29T07:39:34;9.68;;;5.80;;
44516;SDS011;30223;17.182;-96.766;2023-05-29T07:42:01;8.80;;;6.45;;
44516;SDS011;30223;17.182;-96.766;2023-05-29T07:44:29;8.05;;;6.25;;
44516;SDS011;30223;17.182;-96.766;2023-05-29T07:46:55;8.10;;;5.97;;
44516;SDS011;30223;17.182;-96.766;2023-05-29T07:49:22;7.55;;;5.97;;
44516;SDS011;30223;17.182;-96.766;2023-05-29T07:51:50;6.90;;;5.80;;
44516;SDS011;30223;17.182;-96.766;2023-05-29T07:54:16;7.70;;;6.32;;
44516;SDS011;30223;17.182;-96.766;2023-05-29T07:56:46;7.10;;;5.68;;
44516;SDS011;30223;17.182;-96.766;2023-05-29T07:59:12;7.60;;;5.78;;
44516;SDS011;30223;17.182;-96.766;2023-05-29T08:01:40;6.85;;;5.57;;
44516;SDS011;30223;17.182;-96.766;2023-05-29T08:04:06;6.90;;;5.88;;
44516;SDS011;30223;17.182;-96.766;2023-05-29T08:06:33;10.35;;;6.30;;
44516;SDS011;30223;17.182;-96.766;2023-05-29T08:09:00;8.73;;;6.13;;
44516;SDS011;30223;17.182;-96.766;2023-05-29T08:11:27;9.57;;;6.88;;
44516;SDS011;30223;17.182;-96.766;2023-05-29T08:13:53;7.82;;;5.93;;
44516;SDS011;30223;17.182;-96.766;2023-05-29T08:16:20;9.48;;;7.00;;
44516;SDS011;30223;17.182;-96.766;2023-05-29T08:18:47;7.78;;;5.63;;
44516;SDS011;30223;17.182;-96.766;2023-05-29T08:21:14;8.82;;;5.78;;
44516;SDS011;30223;17.182;-96.766;2023-05-29T08:23:41;8.75;;;6.63;;
44516;SDS011;30223;17.182;-96.766;2023-05-29T08:26:07;7.63;;;6.13;;
44516;SDS011;30223;17.182;-96.766;2023-05-29T08:28:34;10.00;;;6.88;;
44516;SDS011;30223;17.182;-96.766;2023-05-29T08:31:01;8.15;;;6.50;;
44516;SDS011;30223;17.182;-96.766;2023-05-29T08:33:28;7.75;;;6.47;;
44516;SDS011;30223;17.182;-96.766;2023-05-29T08:35:58;7.10;;;5.75;;
44516;SDS011;30223;17.182;-96.766;2023-05-29T08:38:25;8.13;;;6.30;;
44516;SDS011;30223;17.182;-96.766;2023-05-29T08:40:52;7.43;;;6.38;;
44516;SDS011;30223;17.182;-96.766;2023-05-29T08:43:22;7.03;;;5.30;;
44516;SDS011;30223;17.182;-96.766;2023-05-29T08:45:52;7.68;;;6.43;;
44516;SDS011;30223;17.182;-96.766;2023-05-29T08:48:22;8.43;;;6.43;;
44516;SDS011;30223;17.182;-96.766;2023-05-29T08:50:53;7.78;;;5.78;;
44516;SDS011;30223;17.182;-96.766;2023-05-29T08:53:21;7.72;;;5.63;;
44516;SDS011;30223;17.182;-96.766;2023-05-29T08:55:48;6.68;;;5.55;;
44516;SDS011;30223;17.182;-96.766;2023-05-29T08:58:21;8.15;;;6.22;;
44516;SDS011;30223;17.182;-96.766;2023-05-29T09:00:49;9.05;;;6.50;;
44516;SDS011;30223;17.182;-96.766;2023-05-29T09:03:16;7.47;;;5.43;;
44516;SDS011;30223;17.182;-96.766;2023-05-29T09:05:45;9.80;;;6.03;;
44516;SDS011;30223;17.182;-96.766;2023-05-29T09:08:12;9.82;;;6.28;;
44516;SDS011;30223;17.182;-96.766;2023-05-29T09:10:43;9.73;;;6.32;;
44516;SDS011;30223;17.182;-96.766;2023-05-29T09:13:11;7.63;;;5.82;;
44516;SDS011;30223;17.182;-96.766;2023-05-29T09:15:39;8.38;;;6.78;;
44516;SDS011;30223;17.182;-96.766;2023-05-29T09:18:08;12.18;;;7.00;;
44516;SDS011;30223;17.182;-96.766;2023-05-29T09:20:36;8.00;;;6.18;;
44516;SDS011;30223;17.182;-96.766;2023-05-29T09:23:04;10.90;;;6.78;;
44516;SDS011;30223;17.182;-96.766;2023-05-29T09:25:35;8.25;;;6.47;;
44516;SDS011;30223;17.182;-96.766;2023-05-29T09:28:08;9.00;;;6.10;;
44516;SDS011;30223;17.182;-96.766;2023-05-29T09:30:36;9.38;;;6.68;;
44516;SDS011;30223;17.182;-96.766;2023-05-29T09:33:03;8.95;;;6.25;;
44516;SDS011;30223;17.182;-96.766;2023-05-29T09:35:36;8.13;;;6.53;;
44516;SDS011;30223;17.182;-96.766;2023-05-29T09:38:05;8.75;;;6.85;;
44516;SDS011;30223;17.182;-96.766;2023-05-29T09:40:33;7.80;;;7.00;;
44516;SDS011;30223;17.182;-96.766;2023-05-29T09:43:25;8.93;;;6.40;;
44516;SDS011;30223;17.182;-96.766;2023-05-29T09:45:52;8.15;;;5.95;;
44516;SDS011;30223;17.182;-96.766;2023-05-29T09:48:22;7.38;;;6.32;;
44516;SDS011;30223;17.182;-96.766;2023-05-29T09:50:49;9.07;;;7.28;;
44516;SDS011;30223;17.182;-96.766;2023-05-29T09:53:20;8.73;;;6.78;;
44516;SDS011;30223;17.182;-96.766;2023-05-29T09:55:52;11.25;;;6.70;;
44516;SDS011;30223;17.182;-96.766;2023-05-29T09:58:20;7.68;;;6.38;;
44516;SDS011;30223;17.182;-96.766;2023-05-29T10:00:48;8.82;;;6.47;;
44516;SDS011;30223;17.182;-96.766;2023-05-29T10:03:16;7.93;;;6.57;;
44516;SDS011;30223;17.182;-96.766;2023-05-29T10:05:49;7.78;;;6.07;;
44516;SDS011;30223;17.182;-96.766;2023-05-29T10:08:19;10.73;;;7.50;;
44516;SDS011;30223;17.182;-96.766;2023-05-29T10:10:48;9.55;;;6.38;;
44516;SDS011;30223;17.182;-96.766;2023-05-29T10:13:21;9.40;;;6.88;;
44516;SDS011;30223;17.182;-96.766;2023-05-29T10:15:51;9.68;;;6.50;;
44516;SDS011;30223;17.182;-96.766;2023-05-29T10:20:49;9.48;;;6.45;;
44516;SDS011;30223;17.182;-96.766;2023-05-29T10:23:22;8.70;;;6.18;;
44516;SDS011;30223;17.182;-96.766;2023-05-29T10:25:53;7.97;;;5.53;;
44516;SDS011;30223;17.182;-96.766;2023-05-29T10:28:27;8.43;;;6.47;;
44516;SDS011;30223;17.182;-96.766;2023-05-29T10:31:02;9.13;;;6.68;;
44516;SDS011;30223;17.182;-96.766;2023-05-29T10:33:52;8.15;;;5.72;;
44516;SDS011;30223;17.182;-96.766;2023-05-29T10:36:44;10.65;;;6.90;;
44516;SDS011;30223;17.182;-96.766;2023-05-29T10:39:15;7.18;;;6.40;;
44516;SDS011;30223;17.182;-96.766;2023-05-29T10:41:42;8.52;;;5.97;;
44516;SDS011;30223;17.182;-96.766;2023-05-29T10:49:31;9.63;;;6.75;;
44516;SDS011;30223;17.182;-96.766;2023-05-29T10:51:58;9.52;;;6.97;;
44516;SDS011;30223;17.182;-96.766;2023-05-29T10:54:25;9.98;;;6.47;;
44516;SDS011;30223;17.182;-96.766;2023-05-29T10:57:01;9.82;;;6.18;;
44516;SDS011;30223;17.182;-96.766;2023-05-29T10:59:28;9.00;;;6.10;;
44516;SDS011;30223;17.182;-96.766;2023-05-29T11:02:00;8.82;;;6.28;;
44516;SDS011;30223;17.182;-96.766;2023-05-29T11:04:32;7.45;;;5.32;;
44516;SDS011;30223;17.182;-96.766;2023-05-29T11:06:59;10.52;;;7.05;;
44516;SDS011;30223;17.182;-96.766;2023-05-29T11:09:37;8.98;;;6.95;;
44516;SDS011;30223;17.182;-96.766;2023-05-29T11:12:11;7.20;;;5.88;;
44516;SDS011;30223;17.182;-96.766;2023-05-29T11:14:56;8.30;;;5.85;;
44516;SDS011;30223;17.182;-96.766;2023-05-29T11:17:31;6.93;;;5.60;;
44516;SDS011;30223;17.182;-96.766;2023-05-29T11:20:00;8.13;;;6.07;;
44516;SDS011;30223;17.182;-96.766;2023-05-29T11:22:40;6.50;;;5.55;;
44516;SDS011;30223;17.182;-96.766;2023-05-29T11:25:25;9.57;;;6.70;;
44516;SDS011;30223;17.182;-96.766;2023-05-29T11:27:53;10.48;;;7.20;;
44516;SDS011;30223;17.182;-96.766;2023-05-29T11:30:20;7.38;;;5.72;;
44516;SDS011;30223;17.182;-96.766;2023-05-29T11:32:47;8.60;;;7.00;;
44516;SDS011;30223;17.182;-96.766;2023-05-29T11:35:17;8.32;;;6.05;;
44516;SDS011;30223;17.182;-96.766;2023-05-29T11:37:47;8.32;;;6.22;;
44516;SDS011;30223;17.182;-96.766;2023-05-29T11:40:15;7.82;;;5.95;;
44516;SDS011;30223;17.182;-96.766;2023-05-29T11:42:43;8.57;;;6.45;;
44516;SDS011;30223;17.182;-96.766;2023-05-29T11:45:15;8.73;;;6.55;;
44516;SDS011;30223;17.182;-96.766;2023-05-29T11:50:22;7.93;;;6.07;;
44516;SDS011;30223;17.182;-96.766;2023-05-29T11:52:51;8.85;;;6.03;;
44516;SDS011;30223;17.182;-96.766;2023-05-29T11:55:19;9.32;;;7.20;;
44516;SDS011;30223;17.182;-96.766;2023-05-29T11:57:50;8.18;;;6.18;;
44516;SDS011;30223;17.182;-96.766;2023-05-29T12:00:21;8.80;;;6.50;;
44516;SDS011;30223;17.182;-96.766;2023-05-29T12:02:48;7.65;;;6.22;;
44516;SDS011;30223;17.182;-96.766;2023-05-29T12:05:15;8.57;;;6.90;;
44516;SDS011;30223;17.182;-96.766;2023-05-29T12:07:53;7.93;;;5.72;;
44516;SDS011;30223;17.182;-96.766;2023-05-29T12:10:26;7.93;;;6.03;;
44516;SDS011;30223;17.182;-96.766;2023-05-29T12:12:54;7.72;;;5.90;;
44516;SDS011;30223;17.182;-96.766;2023-05-29T12:17:49;8.05;;;5.80;;
44516;SDS011;30223;17.182;-96.766;2023-05-29T12:20:17;8.88;;;6.25;;
44516;SDS011;30223;17.182;-96.766;2023-05-29T12:22:45;8.77;;;6.30;;
44516;SDS011;30223;17.182;-96.766;2023-05-29T12:25:15;9.25;;;6.38;;
44516;SDS011;30223;17.182;-96.766;2023-05-29T12:27:45;8.43;;;6.30;;
44516;SDS011;30223;17.182;-96.766;2023-05-29T12:30:14;6.15;;;5.03;;
44516;SDS011;30223;17.182;-96.766;2023-05-29T12:32:44;8.93;;;5.53;;
44516;SDS011;30223;17.182;-96.766;2023-05-29T12:35:19;7.95;;;5.85;;
44516;SDS011;30223;17.182;-96.766;2023-05-29T12:40:19;8.38;;;5.60;;
44516;SDS011;30223;17.182;-96.766;2023-05-29T12:42:49;6.78;;;5.20;;
44516;SDS011;30223;17.182;-96.766;2023-05-29T12:45:28;11.05;;;7.18;;
44516;SDS011;30223;17.182;-96.766;2023-05-29T12:47:59;10.95;;;6.35;;
44516;SDS011;30223;17.182;-96.766;2023-05-29T12:50:34;13.80;;;6.63;;
44516;SDS011;30223;17.182;-96.766;2023-05-29T12:53:05;11.45;;;6.20;;
44516;SDS011;30223;17.182;-96.766;2023-05-29T12:58:13;11.07;;;6.47;;
44516;SDS011;30223;17.182;-96.766;2023-05-29T13:00:45;15.23;;;7.53;;
44516;SDS011;30223;17.182;-96.766;2023-05-29T13:03:12;9.88;;;7.03;;
44516;SDS011;30223;17.182;-96.766;2023-05-29T13:05:40;12.48;;;6.95;;
44516;SDS011;30223;17.182;-96.766;2023-05-29T13:08:07;8.52;;;6.15;;
44516;SDS011;30223;17.182;-96.766;2023-05-29T13:10:34;12.02;;;7.00;;
44516;SDS011;30223;17.182;-96.766;2023-05-29T13:13:01;10.98;;;7.50;;
44516;SDS011;30223;17.182;-96.766;2023-05-29T13:15:27;11.60;;;7.65;;
44516;SDS011;30223;17.182;-96.766;2023-05-29T13:17:54;9.27;;;6.75;;
44516;SDS011;30223;17.182;-96.766;2023-05-29T13:20:21;10.38;;;6.32;;
44516;SDS011;30223;17.182;-96.766;2023-05-29T13:22:48;10.85;;;7.35;;
44516;SDS011;30223;17.182;-96.766;2023-05-29T13:25:15;10.52;;;7.13;;
44516;SDS011;30223;17.182;-96.766;2023-05-29T13:27:45;12.50;;;7.70;;
44516;SDS011;30223;17.182;-96.766;2023-05-29T13:30:14;12.38;;;6.38;;
44516;SDS011;30223;17.182;-96.766;2023-05-29T13:32:41;9.60;;;7.90;;
44516;SDS011;30223;17.182;-96.766;2023-05-29T13:35:09;9.70;;;6.70;;
44516;SDS011;30223;17.182;-96.766;2023-05-29T13:37:36;10.65;;;7.28;;
44516;SDS011;30223;17.182;-96.766;2023-05-29T13:40:03;9.48;;;6.18;;
44516;SDS011;30223;17.182;-96.766;2023-05-29T13:42:31;8.43;;;6.75;;
44516;SDS011;30223;17.182;-96.766;2023-05-29T13:44:58;8.38;;;6.53;;
44516;SDS011;30223;17.182;-96.766;2023-05-29T13:47:25;8.65;;;6.72;;
44516;SDS011;30223;17.182;-96.766;2023-05-29T13:49:57;8.82;;;6.70;;
44516;SDS011;30223;17.182;-96.766;2023-05-29T13:52:25;8.57;;;6.20;;
44516;SDS011;30223;17.182;-96.766;2023-05-29T13:54:52;9.57;;;6.00;;
44516;SDS011;30223;17.182;-96.766;2023-05-29T13:57:19;10.77;;;7.10;;
44516;SDS011;30223;17.182;-96.766;2023-05-29T13:59:45;10.35;;;7.20;;
44516;SDS011;30223;17.182;-96.766;2023-05-29T14:02:12;8.27;;;6.10;;
44516;SDS011;30223;17.182;-96.766;2023-05-29T14:04:39;10.20;;;7.38;;
44516;SDS011;30223;17.182;-96.766;2023-05-29T14:07:07;7.68;;;6.13;;
44516;SDS011;30223;17.182;-96.766;2023-05-29T14:09:34;9.02;;;6.05;;
44516;SDS011;30223;17.182;-96.766;2023-05-29T14:12:01;10.73;;;7.43;;
44516;SDS011;30223;17.182;-96.766;2023-05-29T14:14:28;10.35;;;7.05;;
44516;SDS011;30223;17.182;-96.766;2023-05-29T14:16:54;10.10;;;7.47;;
44516;SDS011;30223;17.182;-96.766;2023-05-29T14:19:22;8.75;;;6.35;;
44516;SDS011;30223;17.182;-96.766;2023-05-29T14:21:49;11.55;;;6.63;;
44516;SDS011;30223;17.182;-96.766;2023-05-29T14:24:16;7.70;;;6.22;;
44516;SDS011;30223;17.182;-96.766;2023-05-29T14:26:43;9.45;;;6.95;;
44516;SDS011;30223;17.182;-96.766;2023-05-29T14:31:42;7.53;;;6.72;;
44516;SDS011;30223;17.182;-96.766;2023-05-29T14:34:10;10.57;;;6.82;;
44516;SDS011;30223;17.182;-96.766;2023-05-29T14:36:38;7.80;;;6.88;;
44516;SDS011;30223;17.182;-96.766;2023-05-29T14:39:05;9.18;;;6.47;;
44516;SDS011;30223;17.182;-96.766;2023-05-29T14:41:32;9.75;;;7.28;;
44516;SDS011;30223;17.182;-96.766;2023-05-29T14:44:00;10.05;;;7.13;;
44516;SDS011;30223;17.182;-96.766;2023-05-29T14:46:27;10.98;;;7.55;;
44516;SDS011;30223;17.182;-96.766;2023-05-29T14:48:59;9.68;;;7.22;;
44516;SDS011;30223;17.182;-96.766;2023-05-29T14:51:27;10.13;;;9.05;;
44516;SDS011;30223;17.182;-96.766;2023-05-29T14:53:53;9.63;;;8.00;;
44516;SDS011;30223;17.182;-96.766;2023-05-29T14:56:21;8.23;;;6.78;;